createdAt,value
2022-12-01T00:01:21.651Z,168.33
2022-12-01T00:03:49.503Z,198.87
2022-12-01T00:06:19.643Z,165.07
2022-12-01T00:09:08.043Z,215.33
2022-12-01T00:11:36.784Z,147.10
2022-12-01T00:14:05.227Z,144.03
2022-12-01T00:16:33.193Z,150.80
2022-12-01T00:19:00.635Z,178.40
2022-12-01T00:21:27.862Z,139.47
2022-12-01T00:23:57.380Z,142.00
2022-12-01T00:26:26.094Z,151.57
2022-12-01T00:28:56.701Z,190.20
2022-12-01T00:31:24.042Z,158.03
2022-12-01T00:33:51.353Z,212.30
2022-12-01T00:36:19.104Z,223.60
2022-12-01T00:38:47.293Z,132.90
2022-12-01T00:41:14.813Z,178.33
2022-12-01T00:43:41.987Z,149.43
2022-12-01T00:46:09.291Z,126.70
2022-12-01T00:48:36.507Z,101.47
2022-12-01T00:51:04.364Z,142.83
2022-12-01T00:53:31.973Z,154.00
2022-12-01T00:55:59.185Z,220.37
2022-12-01T00:58:26.390Z,143.60
2022-12-01T01:01:00.995Z,178.63
2022-12-01T01:03:29.576Z,196.87
2022-12-01T01:06:02.803Z,207.07
2022-12-01T01:08:30.230Z,116.17
2022-12-01T01:10:59.759Z,151.03
2022-12-01T01:13:27.359Z,109.57
2022-12-01T01:16:06.288Z,103.47
2022-12-01T01:18:33.920Z,141.03
2022-12-01T01:21:04.733Z,130.90
2022-12-01T01:23:32.221Z,111.13
2022-12-01T01:26:04.844Z,101.27
2022-12-01T01:28:32.284Z,110.90
2022-12-01T01:31:00.257Z,203.27
2022-12-01T01:33:27.551Z,109.63
2022-12-01T01:35:59.636Z,123.57
2022-12-01T01:38:27.556Z,113.97
2022-12-01T01:40:55.180Z,102.97
2022-12-01T01:43:45.636Z,145.60
2022-12-01T01:46:16.667Z,117.07
2022-12-01T01:48:57.480Z,131.23
2022-12-01T01:51:32.351Z,106.90
2022-12-01T01:54:05.767Z,147.70
2022-12-01T01:56:34.866Z,132.47
2022-12-01T01:59:02.607Z,137.37
2022-12-01T02:01:31.237Z,119.13
2022-12-01T02:03:58.620Z,109.50
2022-12-01T02:06:26.231Z,123.83
2022-12-01T02:08:53.418Z,137.97
2022-12-01T02:11:53.336Z,105.93
2022-12-01T02:14:24.944Z,125.83
2022-12-01T02:17:09.534Z,130.17
2022-12-01T02:19:58.999Z,108.13
2022-12-01T02:22:35.311Z,136.53
2022-12-01T02:25:39.437Z,124.80
2022-12-01T02:28:34.837Z,98.27
2022-12-01T02:31:16.192Z,116.70
2022-12-01T02:34:10.213Z,111.27
2022-12-01T02:36:48.983Z,86.00
2022-12-01T02:39:30.398Z,107.80
2022-12-01T02:42:09.304Z,130.70
2022-12-01T02:44:44.385Z,96.37
2022-12-01T02:47:17.115Z,137.70
2022-12-01T02:49:49.280Z,134.23
2022-12-01T02:52:18.671Z,132.03
2022-12-01T02:54:48.368Z,97.70
2022-12-01T02:57:16.709Z,134.03
2022-12-01T02:59:49.092Z,175.83
2022-12-01T03:02:42.820Z,119.47
2022-12-01T03:05:18.637Z,96.00
2022-12-01T03:08:01.247Z,155.20
2022-12-01T03:10:51.919Z,124.23
2022-12-01T03:13:37.255Z,89.10
2022-12-01T03:16:11.694Z,110.40
2022-12-01T03:18:48.879Z,129.60
2022-12-01T03:21:35.012Z,131.63
2022-12-01T03:24:07.782Z,114.73
2022-12-01T03:26:37.306Z,93.90
2022-12-01T03:29:17.837Z,101.93
2022-12-01T03:31:50.567Z,98.47
2022-12-01T03:34:37.283Z,100.47
2022-12-01T03:37:10.052Z,94.80
2022-12-01T03:39:39.983Z,103.70
2022-12-01T03:42:19.776Z,95.63
2022-12-01T03:44:51.595Z,94.20
2022-12-01T03:47:22.285Z,104.93
2022-12-01T03:49:52.133Z,80.90
2022-12-01T03:52:19.279Z,100.73
2022-12-01T03:55:16.118Z,98.90
2022-12-01T03:58:02.700Z,108.53
2022-12-01T04:00:31.280Z,124.73
2022-12-01T04:03:03.071Z,96.23
2022-12-01T04:05:32.390Z,101.67
2022-12-01T04:08:00.760Z,95.83
2022-12-01T04:10:28.057Z,121.10
2022-12-01T04:12:59.248Z,95.80
2022-12-01T04:15:27.337Z,115.63
2022-12-01T04:17:54.695Z,104.70
2022-12-01T04:20:22.087Z,104.40
2022-12-01T04:22:49.594Z,113.23
2022-12-01T04:25:16.883Z,128.20
2022-12-01T04:27:45.985Z,111.07
2022-12-01T04:30:13.814Z,116.57
2022-12-01T04:32:43.216Z,103.00
2022-12-01T04:35:12.166Z,119.70
2022-12-01T04:37:40.060Z,86.80
2022-12-01T04:40:08.185Z,94.43
2022-12-01T04:42:35.527Z,88.50
2022-12-01T04:45:03.569Z,99.83
2022-12-01T04:47:31.005Z,128.77
2022-12-01T04:49:58.164Z,114.53
2022-12-01T04:52:28.353Z,101.03
2022-12-01T04:54:57.861Z,113.50
2022-12-01T04:57:26.245Z,117.43
2022-12-01T04:59:53.428Z,92.40
2022-12-01T05:02:20.926Z,113.57
2022-12-01T05:04:48.480Z,102.30
2022-12-01T05:07:15.672Z,116.70
2022-12-01T05:09:43.182Z,105.03
2022-12-01T05:14:52.755Z,124.97
2022-12-01T05:17:20.036Z,116.83
2022-12-01T05:20:07.657Z,101.30
2022-12-01T05:23:03.894Z,125.50
2022-12-01T05:25:22.050Z,119.47
2022-12-01T05:27:49.268Z,108.47
2022-12-01T05:30:17.093Z,132.70
2022-12-01T05:32:44.690Z,115.33
2022-12-01T05:35:11.860Z,106.30
2022-12-01T05:37:39.061Z,108.57
2022-12-01T05:40:07.037Z,113.20
2022-12-01T05:42:34.250Z,102.13
2022-12-01T05:45:05.893Z,100.97
2022-12-01T05:47:33.142Z,114.50
2022-12-01T05:50:05.487Z,98.20
2022-12-01T05:52:37.496Z,90.43
2022-12-01T05:55:05.665Z,86.47
2022-12-01T05:57:33.511Z,95.00
2022-12-01T06:00:00.988Z,91.33
2022-12-01T06:02:28.212Z,87.13
2022-12-01T06:04:55.397Z,109.33
2022-12-01T06:07:25.117Z,92.40
2022-12-01T06:09:52.997Z,87.00
2022-12-01T06:12:20.250Z,93.10
2022-12-01T06:14:47.425Z,99.50
2022-12-01T06:17:14.665Z,114.40
2022-12-01T06:19:43.419Z,106.90
2022-12-01T06:22:11.226Z,99.07
2022-12-01T06:24:38.476Z,92.83
2022-12-01T06:27:05.922Z,105.20
2022-12-01T06:29:34.788Z,99.57
2022-12-01T06:32:05.236Z,94.73
2022-12-01T06:34:32.470Z,95.60
2022-12-01T06:36:59.631Z,107.00
2022-12-01T06:39:26.803Z,95.77
2022-12-01T06:41:53.958Z,101.00
2022-12-01T06:44:21.147Z,90.67
2022-12-01T06:46:52.670Z,107.03
2022-12-01T06:49:20.189Z,108.27
2022-12-01T06:51:47.833Z,100.37
2022-12-01T06:54:15.304Z,94.87
2022-12-01T06:56:45.962Z,93.40
2022-12-01T06:59:13.618Z,96.33
2022-12-01T07:01:41.060Z,93.00
2022-12-01T07:04:08.452Z,109.87
2022-12-01T07:06:35.681Z,95.60
2022-12-01T07:09:03.448Z,93.33
2022-12-01T07:11:32.177Z,92.37
2022-12-01T07:13:59.447Z,97.23
2022-12-01T07:16:26.630Z,102.33
2022-12-01T07:18:53.911Z,100.47
2022-12-01T07:21:21.349Z,87.93
2022-12-01T07:23:48.485Z,92.43
2022-12-01T07:26:17.971Z,83.93
2022-12-01T07:28:48.441Z,85.93
2022-12-01T07:31:18.355Z,89.93
2022-12-01T07:33:45.994Z,92.20
2022-12-01T07:36:14.262Z,81.70
2022-12-01T07:38:41.919Z,82.70
2022-12-01T07:41:11.889Z,83.33
2022-12-01T07:43:39.636Z,70.07
2022-12-01T07:46:17.176Z,76.13
2022-12-01T07:48:48.754Z,85.43
2022-12-01T07:51:16.745Z,77.47
2022-12-01T07:53:45.871Z,78.67
2022-12-01T07:56:13.648Z,77.70
2022-12-01T07:58:40.986Z,68.90
2022-12-01T08:01:10.790Z,69.27
2022-12-01T08:03:39.723Z,71.40
2022-12-01T08:06:08.142Z,72.43
2022-12-01T08:08:37.070Z,75.30
2022-12-01T08:11:07.451Z,71.97
2022-12-01T08:13:34.625Z,71.70
2022-12-01T08:16:06.572Z,74.07
2022-12-01T08:18:35.689Z,68.67
2022-12-01T08:21:03.767Z,65.83
2022-12-01T08:23:31.021Z,74.33
2022-12-01T08:26:03.042Z,71.90
2022-12-01T08:28:30.447Z,72.87
2022-12-01T08:30:58.242Z,76.93
2022-12-01T08:33:25.391Z,72.73
2022-12-01T08:35:52.748Z,77.80
2022-12-01T08:38:20.366Z,73.57
2022-12-01T08:40:47.551Z,74.20
2022-12-01T08:43:41.439Z,64.07
2022-12-01T08:46:02.281Z,62.27
2022-12-01T08:48:30.039Z,70.03
2022-12-01T08:51:06.599Z,80.03
2022-12-01T08:53:35.752Z,70.10
2022-12-01T08:56:15.961Z,73.60
2022-12-01T08:58:43.423Z,72.87
2022-12-01T09:01:13.358Z,66.60
2022-12-01T09:03:41.502Z,67.47
2022-12-01T09:06:17.120Z,73.17
2022-12-01T09:08:44.625Z,61.00
2022-12-01T09:11:17.348Z,68.33
2022-12-01T09:13:49.922Z,71.07
2022-12-01T09:16:20.302Z,69.80
2022-12-01T09:18:47.924Z,67.67
2022-12-01T09:21:24.745Z,70.53
2022-12-01T09:23:52.581Z,72.43
2022-12-01T09:26:20.280Z,70.57
2022-12-01T09:28:49.388Z,60.53
2022-12-01T09:31:18.309Z,69.17
2022-12-01T09:33:45.998Z,76.70
2022-12-01T09:36:13.565Z,66.77
2022-12-01T09:38:40.888Z,71.87
2022-12-01T09:41:30.851Z,60.87
2022-12-01T09:44:14.390Z,59.43
2022-12-01T09:46:46.790Z,63.67
2022-12-01T09:49:19.566Z,58.37
2022-12-01T09:51:46.772Z,62.70
2022-12-01T09:54:14.805Z,59.77
2022-12-01T09:56:46.020Z,60.97
2022-12-01T09:59:24.039Z,58.63
2022-12-01T10:01:55.467Z,60.70
2022-12-01T10:04:45.036Z,57.47
2022-12-01T10:07:24.210Z,62.80
2022-12-01T10:10:31.047Z,61.33
2022-12-01T10:12:58.284Z,62.13
2022-12-01T10:15:30.923Z,56.23
2022-12-01T10:18:26.744Z,57.20
2022-12-01T10:21:23.498Z,62.33
2022-12-01T10:24:12.422Z,56.23
2022-12-01T10:26:59.433Z,56.50
2022-12-01T10:29:51.770Z,54.00
2022-12-01T10:32:24.773Z,53.97
2022-12-01T10:34:52.005Z,60.70
2022-12-01T10:37:22.788Z,63.63
2022-12-01T10:39:52.728Z,60.20
2022-12-01T10:42:40.937Z,65.80
2022-12-01T10:45:23.028Z,54.40
2022-12-01T10:48:12.931Z,58.07
2022-12-01T10:50:40.939Z,59.77
2022-12-01T10:53:39.981Z,65.00
2022-12-01T10:56:20.431Z,58.07
2022-12-01T10:58:56.844Z,52.73
2022-12-01T11:01:28.747Z,62.60
2022-12-01T11:04:01.410Z,53.90
2022-12-01T11:06:30.979Z,47.43
2022-12-01T11:09:04.625Z,51.23
2022-12-01T11:11:31.769Z,51.83
2022-12-01T11:14:02.305Z,44.00
2022-12-01T11:16:44.867Z,44.57
2022-12-01T11:19:34.406Z,43.77
2022-12-01T11:22:21.399Z,43.67
2022-12-01T11:25:04.619Z,47.87
2022-12-01T11:27:57.482Z,48.00
2022-12-01T11:30:27.259Z,51.07
2022-12-01T11:32:57.981Z,54.40
2022-12-01T11:35:28.871Z,52.57
2022-12-01T11:38:28.685Z,56.37
2022-12-01T11:40:51.624Z,54.57
2022-12-01T11:43:28.264Z,60.40
2022-12-01T11:45:58.229Z,48.73
2022-12-01T11:48:27.866Z,60.53
2022-12-01T11:51:21.430Z,66.63
2022-12-01T11:53:49.488Z,60.53
2022-12-01T11:56:28.470Z,67.40
2022-12-01T11:59:04.739Z,64.93
2022-12-01T12:01:59.806Z,77.97
2022-12-01T12:04:58.873Z,63.03
2022-12-01T12:07:54.031Z,66.77
2022-12-01T12:10:36.408Z,70.53
2022-12-01T12:13:15.365Z,71.43
2022-12-01T12:16:01.071Z,76.57
2022-12-01T12:18:44.442Z,69.73
2022-12-01T12:21:21.930Z,73.63
2022-12-01T12:24:08.096Z,85.07
2022-12-01T12:26:50.240Z,79.33
2022-12-01T12:29:42.853Z,72.50
2022-12-01T12:32:30.796Z,78.80
2022-12-01T12:35:22.162Z,67.90
2022-12-01T12:38:20.827Z,80.93
2022-12-01T12:41:00.456Z,80.17
2022-12-01T12:43:51.186Z,77.83
2022-12-01T12:46:57.510Z,80.57
2022-12-01T12:49:36.698Z,76.10
2022-12-01T12:52:16.566Z,75.63
2022-12-01T12:54:55.172Z,74.77
2022-12-01T12:57:37.844Z,68.13
2022-12-01T13:00:18.139Z,65.20
2022-12-01T13:03:06.147Z,70.93
2022-12-01T13:05:41.544Z,68.20
2022-12-01T13:08:13.787Z,73.50
2022-12-01T13:10:57.996Z,73.50
2022-12-01T13:13:51.017Z,55.17
2022-12-01T13:16:30.313Z,71.63
2022-12-01T13:19:07.244Z,51.53
2022-12-01T13:21:39.654Z,60.40
2022-12-01T13:24:22.826Z,47.50
2022-12-01T13:27:10.853Z,64.47
2022-12-01T13:29:47.141Z,54.97
2022-12-01T13:32:40.809Z,62.13
2022-12-01T13:35:31.615Z,61.73
2022-12-01T13:38:22.531Z,52.97
2022-12-01T13:40:50.183Z,58.57
2022-12-01T13:43:22.946Z,48.27
2022-12-01T13:45:51.401Z,45.97
2022-12-01T13:48:48.246Z,51.87
2022-12-01T13:51:15.935Z,50.00
2022-12-01T13:54:02.932Z,54.53
2022-12-01T13:56:46.708Z,47.80
2022-12-01T13:59:42.276Z,43.30
2022-12-01T14:02:21.402Z,45.90
2022-12-01T14:04:49.184Z,42.13
2022-12-01T14:07:23.074Z,49.37
2022-12-01T14:09:54.623Z,47.33
2022-12-01T14:12:28.514Z,45.70
2022-12-01T14:15:02.557Z,41.57
2022-12-01T14:17:37.017Z,46.30
2022-12-01T14:20:18.650Z,48.40
2022-12-01T14:22:50.158Z,39.63
2022-12-01T14:25:20.455Z,40.07
2022-12-01T14:27:57.508Z,40.20
2022-12-01T14:30:40.535Z,42.93
2022-12-01T14:33:38.752Z,41.00
2022-12-01T14:36:22.832Z,38.00
2022-12-01T14:38:59.310Z,38.60
2022-12-01T14:41:34.069Z,43.17
2022-12-01T14:44:09.645Z,38.87
2022-12-01T14:46:45.588Z,36.37
2022-12-01T14:49:17.781Z,41.37
2022-12-01T14:51:49.799Z,34.20
2022-12-01T14:54:24.931Z,39.63
2022-12-01T14:56:55.548Z,38.90
2022-12-01T14:59:26.166Z,41.93
2022-12-01T15:01:58.145Z,44.77
2022-12-01T15:04:26.055Z,36.70
2022-12-01T15:06:57.213Z,37.50
2022-12-01T15:09:34.058Z,37.37
2022-12-01T15:12:07.503Z,33.77
2022-12-01T15:14:35.027Z,35.00
2022-12-01T15:17:05.073Z,32.13
2022-12-01T15:19:40.926Z,34.13
2022-12-01T15:22:16.305Z,33.90
2022-12-01T15:24:44.408Z,33.17
2022-12-01T15:27:29.770Z,29.50
2022-12-01T15:29:58.552Z,29.93
2022-12-01T15:32:27.028Z,26.63
2022-12-01T15:34:55.865Z,26.40
2022-12-01T15:37:26.556Z,27.43
2022-12-01T15:40:11.953Z,28.23
2022-12-01T15:42:43.919Z,26.87
2022-12-01T15:45:22.522Z,28.33
2022-12-01T15:47:51.838Z,26.90
2022-12-01T15:50:48.671Z,23.90
2022-12-01T15:53:33.350Z,28.73
2022-12-01T15:56:04.168Z,26.30
2022-12-01T15:58:36.095Z,27.80
2022-12-01T16:01:12.651Z,25.57
2022-12-01T16:03:55.970Z,26.30
2022-12-01T16:06:27.240Z,26.80
2022-12-01T16:09:07.306Z,28.97
2022-12-01T16:11:34.566Z,26.70
2022-12-01T16:14:19.473Z,25.90
2022-12-01T16:16:48.378Z,26.03
2022-12-01T16:19:18.611Z,25.40
2022-12-01T16:21:54.200Z,29.83
2022-12-01T16:24:29.554Z,29.90
2022-12-01T16:27:01.325Z,21.53
2022-12-01T16:29:31.298Z,32.30
2022-12-01T16:32:20.398Z,29.10
2022-12-01T16:34:49.441Z,28.80
2022-12-01T16:37:17.436Z,26.27
2022-12-01T16:39:44.778Z,25.20
2022-12-01T16:42:17.620Z,23.60
2022-12-01T16:44:46.313Z,24.40
2022-12-01T16:47:15.030Z,29.03
2022-12-01T16:49:42.609Z,27.60
2022-12-01T16:54:58.559Z,27.27
2022-12-01T16:57:25.673Z,24.67
2022-12-01T16:59:52.837Z,34.47
2022-12-01T17:02:20.061Z,30.47
2022-12-01T17:04:47.321Z,33.73
2022-12-01T17:07:14.915Z,32.93
2022-12-01T17:09:42.047Z,33.47
2022-12-01T17:12:09.642Z,31.97
2022-12-01T17:14:37.169Z,34.97
2022-12-01T17:17:04.548Z,39.23
2022-12-01T17:19:31.727Z,36.10
2022-12-01T17:21:58.879Z,37.07
2022-12-01T17:24:30.042Z,35.00
2022-12-01T17:26:57.197Z,42.87
2022-12-01T17:29:24.421Z,42.00
2022-12-01T17:31:52.589Z,45.00
2022-12-01T17:34:19.772Z,49.00
2022-12-01T17:36:47.530Z,40.63
2022-12-01T17:39:15.041Z,47.20
2022-12-01T17:41:42.635Z,41.17
2022-12-01T17:44:10.023Z,51.47
2022-12-01T17:46:38.469Z,54.37
2022-12-01T17:49:09.537Z,47.00
2022-12-01T17:51:37.084Z,49.03
2022-12-01T17:54:04.722Z,48.83
2022-12-01T17:56:32.097Z,47.07
2022-12-01T17:58:59.271Z,46.63
2022-12-01T18:01:30.272Z,62.40
2022-12-01T18:03:58.898Z,52.37
2022-12-01T18:06:26.903Z,59.77
2022-12-01T18:08:54.310Z,55.13
2022-12-01T18:11:22.760Z,55.13
2022-12-01T18:13:52.950Z,56.30
2022-12-01T18:16:24.234Z,64.47
2022-12-01T18:18:52.956Z,57.40
2022-12-01T18:21:22.700Z,56.27
2022-12-01T18:23:51.811Z,69.80
2022-12-01T18:26:21.879Z,66.17
2022-12-01T18:29:04.927Z,57.33
2022-12-01T18:31:35.375Z,67.60
2022-12-01T18:34:03.787Z,59.97
2022-12-01T18:36:32.807Z,65.90
2022-12-01T18:39:01.001Z,67.03
2022-12-01T18:41:28.328Z,64.97
2022-12-01T18:43:55.687Z,69.43
2022-12-01T18:46:23.191Z,57.57
2022-12-01T18:48:53.206Z,67.70
2022-12-01T18:51:21.267Z,54.97
2022-12-01T18:53:48.581Z,72.20
2022-12-01T18:56:15.797Z,65.57
2022-12-01T18:58:44.742Z,60.97
2022-12-01T19:01:23.018Z,72.93
2022-12-01T19:03:50.823Z,70.20
2022-12-01T19:06:19.200Z,70.63
2022-12-01T19:08:47.652Z,75.30
2022-12-01T19:11:15.621Z,74.07
2022-12-01T19:13:43.021Z,73.50
2022-12-01T19:16:16.570Z,60.13
2022-12-01T19:18:44.491Z,62.63
2022-12-01T19:21:14.106Z,67.63
2022-12-01T19:23:41.747Z,57.20
2022-12-01T19:26:12.398Z,69.40
2022-12-01T19:28:42.037Z,71.07
2022-12-01T19:31:12.390Z,64.57
2022-12-01T19:33:40.113Z,68.23
2022-12-01T19:36:12.479Z,53.93
2022-12-01T19:38:40.480Z,68.80
2022-12-01T19:41:09.234Z,57.10
2022-12-01T19:43:37.462Z,63.93
2022-12-01T19:46:09.902Z,71.40
2022-12-01T19:48:37.329Z,62.50
2022-12-01T19:51:05.232Z,58.53
2022-12-01T19:53:33.984Z,48.90
2022-12-01T19:56:05.248Z,59.03
2022-12-01T19:58:34.827Z,56.60
2022-12-01T20:01:08.240Z,54.77
2022-12-01T20:03:37.657Z,43.87
2022-12-01T20:06:14.515Z,45.63
2022-12-01T20:08:42.280Z,45.07
2022-12-01T20:11:11.645Z,40.30
2022-12-01T20:13:41.927Z,43.50
2022-12-01T20:16:15.382Z,42.27
2022-12-01T20:18:43.608Z,33.90
2022-12-01T20:21:17.642Z,35.50
2022-12-01T20:23:48.677Z,31.10
2022-12-01T20:26:18.241Z,33.10
2022-12-01T20:28:47.640Z,32.17
2022-12-01T20:31:18.772Z,41.10
2022-12-01T20:33:47.835Z,36.63
2022-12-01T20:36:15.650Z,34.53
2022-12-01T20:38:43.508Z,35.63
2022-12-01T20:41:12.030Z,36.13
2022-12-01T20:43:39.231Z,34.47
2022-12-01T20:46:06.909Z,29.60
2022-12-01T20:48:34.627Z,39.03
2022-12-01T20:51:03.880Z,38.63
2022-12-01T20:53:31.542Z,40.20
2022-12-01T20:56:06.105Z,38.90
2022-12-01T20:58:37.447Z,38.80
2022-12-01T21:01:10.504Z,37.10
2022-12-01T21:03:39.608Z,37.40
2022-12-01T21:06:08.259Z,40.30
2022-12-01T21:08:40.488Z,38.73
2022-12-01T21:11:18.855Z,43.53
2022-12-01T21:13:46.833Z,39.43
2022-12-01T21:16:27.517Z,37.47
2022-12-01T21:19:13.336Z,38.17
2022-12-01T21:21:41.530Z,38.73
2022-12-01T21:24:16.949Z,39.80
2022-12-01T21:27:02.025Z,35.73
2022-12-01T21:29:41.870Z,39.10
2022-12-01T21:32:31.588Z,46.97
2022-12-01T21:35:13.661Z,45.10
2022-12-01T21:37:40.941Z,34.40
2022-12-01T21:40:26.169Z,40.80
2022-12-01T21:42:54.139Z,41.60
2022-12-01T21:45:31.064Z,40.17
2022-12-01T21:48:06.043Z,42.73
2022-12-01T21:50:33.178Z,45.13
2022-12-01T21:53:01.019Z,39.83
2022-12-01T21:55:33.530Z,43.83
2022-12-01T21:58:01.137Z,43.00
2022-12-01T22:00:36.767Z,35.40
2022-12-01T22:03:23.002Z,40.50
2022-12-01T22:06:21.262Z,41.73
2022-12-01T22:08:42.663Z,43.63
2022-12-01T22:11:18.607Z,37.90
2022-12-01T22:14:13.907Z,37.50
2022-12-01T22:16:44.309Z,38.23
2022-12-01T22:19:15.089Z,40.03
2022-12-01T22:22:11.038Z,38.83
2022-12-01T22:24:56.411Z,43.67
2022-12-01T22:27:39.219Z,38.13
2022-12-01T22:30:06.362Z,40.80
2022-12-01T22:32:47.783Z,34.37
2022-12-01T22:35:45.650Z,35.60
2022-12-01T22:38:23.904Z,36.73
2022-12-01T22:40:58.467Z,40.23
2022-12-01T22:43:42.924Z,39.83
2022-12-01T22:46:26.820Z,39.87
2022-12-01T22:49:06.357Z,34.43
2022-12-01T22:51:57.275Z,41.83
2022-12-01T22:54:32.285Z,42.20
2022-12-01T22:57:13.488Z,42.40
2022-12-01T22:59:43.374Z,46.60
2022-12-01T23:02:27.481Z,50.17
2022-12-01T23:05:01.069Z,43.60
2022-12-01T23:07:33.058Z,44.10
2022-12-01T23:10:03.347Z,44.23
2022-12-01T23:12:32.847Z,52.57
2022-12-01T23:15:27.514Z,45.93
2022-12-01T23:17:55.171Z,47.90
2022-12-01T23:20:34.066Z,46.20
2022-12-01T23:23:04.402Z,43.30
2022-12-01T23:25:34.156Z,43.93
2022-12-01T23:28:04.849Z,43.00
2022-12-01T23:30:32.119Z,40.57
2022-12-01T23:33:23.976Z,47.30
2022-12-01T23:35:57.987Z,46.97
2022-12-01T23:38:35.898Z,38.97
2022-12-01T23:41:15.645Z,44.87
2022-12-01T23:43:44.748Z,41.93
2022-12-01T23:46:22.185Z,37.70
2022-12-01T23:48:52.154Z,44.10
2022-12-01T23:51:24.341Z,41.70
2022-12-01T23:53:53.188Z,38.60
2022-12-01T23:56:22.615Z,37.60
2022-12-01T23:58:51.189Z,35.77
